createdAt,value
2023-11-23T00:00:32.886Z,5.55
2023-11-23T00:02:59.900Z,6.45
2023-11-23T00:05:30.360Z,5.88
2023-11-23T00:07:57.360Z,6.40
2023-11-23T00:10:24.481Z,6.68
2023-11-23T00:12:52.526Z,14.55
2023-11-23T00:15:19.760Z,7.05
2023-11-23T00:17:46.982Z,7.97
2023-11-23T00:20:13.993Z,7.53
2023-11-23T00:22:41.080Z,9.27
2023-11-23T00:25:13.429Z,6.47
2023-11-23T00:27:40.762Z,4.50
2023-11-23T00:30:11.128Z,5.45
2023-11-23T00:32:38.321Z,6.07
2023-11-23T00:35:05.417Z,5.72
2023-11-23T00:37:32.781Z,6.40
2023-11-23T00:40:00.077Z,6.78
2023-11-23T00:42:27.095Z,6.32
2023-11-23T00:44:54.238Z,5.22
2023-11-23T00:47:21.543Z,6.00
2023-11-23T00:49:48.572Z,4.85
2023-11-23T00:52:16.425Z,7.45
2023-11-23T00:54:43.597Z,4.75
2023-11-23T00:57:10.715Z,4.85
2023-11-23T00:59:37.811Z,4.50
2023-11-23T01:02:05.534Z,4.70
2023-11-23T01:04:32.864Z,5.18
2023-11-23T01:07:00.549Z,5.03
2023-11-23T01:09:27.486Z,4.20
2023-11-23T01:11:55.948Z,4.55
2023-11-23T01:14:23.068Z,4.15
2023-11-23T01:16:50.090Z,5.03
2023-11-23T01:19:17.058Z,5.18
2023-11-23T01:21:44.217Z,5.03
2023-11-23T01:24:11.311Z,6.70
2023-11-23T01:26:38.934Z,4.72
2023-11-23T01:29:06.066Z,4.70
2023-11-23T01:31:33.084Z,5.78
2023-11-23T01:34:01.200Z,4.22
2023-11-23T01:36:29.011Z,4.65
2023-11-23T01:38:56.283Z,4.30
2023-11-23T01:41:24.013Z,5.35
2023-11-23T01:43:51.072Z,4.55
2023-11-23T01:46:18.263Z,6.75
2023-11-23T01:48:45.789Z,4.03
2023-11-23T01:51:13.968Z,3.63
2023-11-23T01:53:41.563Z,4.35
2023-11-23T01:56:09.516Z,4.15
2023-11-23T01:58:36.449Z,3.83
2023-11-23T02:01:05.042Z,3.50
2023-11-23T02:03:32.122Z,3.63
2023-11-23T02:05:59.711Z,3.58
2023-11-23T02:08:27.267Z,5.00
2023-11-23T02:10:55.380Z,3.92
2023-11-23T02:13:23.041Z,3.75
2023-11-23T02:15:50.214Z,4.03
2023-11-23T02:18:17.362Z,4.03
2023-11-23T02:20:50.488Z,3.53
2023-11-23T02:23:17.657Z,3.90
2023-11-23T02:25:44.708Z,3.47
2023-11-23T02:28:11.826Z,3.42
2023-11-23T02:30:38.862Z,3.97
2023-11-23T02:33:06.246Z,4.00
2023-11-23T02:35:33.365Z,5.15
2023-11-23T02:38:01.536Z,3.58
2023-11-23T02:40:28.436Z,5.18
2023-11-23T02:42:56.402Z,5.15
2023-11-23T02:45:23.480Z,4.75
2023-11-23T02:47:50.833Z,4.32
2023-11-23T02:50:17.901Z,3.50
2023-11-23T02:52:44.906Z,4.18
2023-11-23T02:55:12.597Z,3.38
2023-11-23T02:57:39.945Z,3.65
2023-11-23T03:00:08.601Z,4.25
2023-11-23T03:02:35.807Z,4.25
2023-11-23T03:05:02.905Z,4.55
2023-11-23T03:07:29.934Z,7.35
2023-11-23T03:09:56.868Z,3.15
2023-11-23T03:12:24.643Z,4.60
2023-11-23T03:14:52.231Z,5.75
2023-11-23T03:17:20.406Z,3.67
2023-11-23T03:19:47.422Z,3.10
2023-11-23T03:22:14.702Z,4.78
2023-11-23T03:24:41.725Z,5.00
2023-11-23T03:27:10.684Z,2.78
2023-11-23T03:29:37.731Z,3.97
2023-11-23T03:32:04.980Z,6.97
2023-11-23T03:34:32.562Z,4.07
2023-11-23T03:36:59.666Z,4.53
2023-11-23T03:39:27.196Z,3.28
2023-11-23T03:41:54.399Z,2.83
2023-11-23T03:44:21.690Z,3.55
2023-11-23T03:46:48.797Z,4.28
2023-11-23T03:49:15.744Z,4.55
2023-11-23T03:51:42.777Z,3.08
2023-11-23T03:54:09.785Z,3.85
2023-11-23T03:56:39.295Z,2.90
2023-11-23T03:59:06.396Z,3.38
2023-11-23T04:01:34.228Z,2.22
2023-11-23T04:04:01.714Z,2.80
2023-11-23T04:06:28.981Z,3.40
2023-11-23T04:08:55.981Z,3.20
2023-11-23T04:11:24.660Z,2.72
2023-11-23T04:13:51.572Z,2.45
2023-11-23T04:16:18.756Z,2.55
2023-11-23T04:18:47.558Z,2.25
2023-11-23T04:21:15.208Z,2.65
2023-11-23T04:23:42.369Z,2.03
2023-11-23T04:26:09.444Z,2.38
2023-11-23T04:28:37.232Z,2.70
2023-11-23T04:31:05.490Z,2.58
2023-11-23T04:33:33.162Z,2.35
2023-11-23T04:36:01.397Z,3.05
2023-11-23T04:38:29.236Z,2.97
2023-11-23T04:40:56.242Z,2.50
2023-11-23T04:43:23.400Z,2.72
2023-11-23T04:45:50.590Z,3.10
2023-11-23T04:48:17.747Z,2.70
2023-11-23T04:50:44.913Z,2.67
2023-11-23T04:53:11.960Z,2.70
2023-11-23T04:55:40.242Z,3.40
2023-11-23T04:58:08.573Z,4.40
2023-11-23T05:00:37.176Z,4.00
2023-11-23T05:03:04.373Z,4.10
2023-11-23T05:05:31.579Z,2.90
2023-11-23T05:07:58.557Z,2.53
2023-11-23T05:10:25.543Z,3.53
2023-11-23T05:12:53.236Z,5.22
2023-11-23T05:15:20.478Z,3.72
2023-11-23T05:17:47.782Z,3.47
2023-11-23T05:20:15.186Z,3.55
2023-11-23T05:22:42.196Z,3.35
2023-11-23T05:25:09.388Z,3.42
2023-11-23T05:27:36.615Z,3.50
2023-11-23T05:30:03.990Z,2.75
2023-11-23T05:32:31.591Z,3.13
2023-11-23T05:34:58.733Z,3.47
2023-11-23T05:37:25.665Z,4.53
2023-11-23T05:39:52.883Z,4.68
2023-11-23T05:42:20.006Z,3.92
2023-11-23T05:44:47.139Z,3.88
2023-11-23T05:47:14.349Z,3.70
2023-11-23T05:49:41.592Z,3.78
2023-11-23T05:52:10.493Z,3.72
2023-11-23T05:54:38.768Z,3.75
2023-11-23T05:57:06.001Z,4.65
2023-11-23T05:59:34.093Z,4.70
2023-11-23T06:02:04.151Z,4.85
2023-11-23T06:04:31.358Z,6.28
2023-11-23T06:06:58.372Z,5.72
2023-11-23T06:09:25.420Z,8.68
2023-11-23T06:11:52.432Z,5.40
2023-11-23T06:14:19.515Z,5.90
2023-11-23T06:16:46.480Z,6.55
2023-11-23T06:19:13.478Z,6.15
2023-11-23T06:21:40.393Z,6.70
2023-11-23T06:24:07.863Z,5.63
2023-11-23T06:26:34.894Z,6.82
2023-11-23T06:29:01.920Z,6.60
2023-11-23T06:31:29.288Z,6.78
2023-11-23T06:33:56.596Z,7.20
2023-11-23T06:36:23.654Z,7.05
2023-11-23T06:38:50.855Z,7.75
2023-11-23T06:41:20.070Z,9.35
2023-11-23T06:43:50.898Z,10.23
2023-11-23T06:46:18.176Z,10.00
2023-11-23T06:48:48.352Z,15.65
2023-11-23T06:51:15.818Z,9.95
2023-11-23T06:53:47.724Z,10.10
2023-11-23T06:56:15.753Z,10.57
2023-11-23T06:58:43.183Z,9.27
2023-11-23T07:01:10.480Z,6.05
2023-11-23T07:03:37.896Z,6.75
2023-11-23T07:06:05.830Z,6.55
2023-11-23T07:08:37.129Z,6.03
2023-11-23T07:11:07.100Z,8.13
2023-11-23T07:13:34.797Z,6.72
2023-11-23T07:16:04.244Z,4.82
2023-11-23T07:18:31.774Z,5.00
2023-11-23T07:20:58.968Z,5.93
2023-11-23T07:23:26.487Z,6.43
2023-11-23T07:25:54.218Z,7.95
2023-11-23T07:28:23.351Z,6.53
2023-11-23T07:30:50.507Z,8.27
2023-11-23T07:33:19.166Z,10.43
2023-11-23T07:35:48.316Z,8.27
2023-11-23T07:38:16.511Z,9.30
2023-11-23T07:40:45.193Z,9.95
2023-11-23T07:43:12.303Z,9.95
2023-11-23T07:45:39.521Z,8.70
2023-11-23T07:48:10.781Z,8.93
2023-11-23T07:50:38.666Z,7.72
2023-11-23T07:53:05.993Z,7.95
2023-11-23T07:55:33.051Z,7.55
2023-11-23T07:58:00.253Z,8.23
2023-11-23T08:00:27.491Z,7.65
2023-11-23T08:02:56.084Z,7.05
2023-11-23T08:05:24.287Z,9.90
2023-11-23T08:07:51.772Z,8.35
2023-11-23T08:10:18.756Z,7.72
2023-11-23T08:12:46.661Z,9.05
2023-11-23T08:15:16.676Z,10.77
2023-11-23T08:17:54.156Z,9.77
2023-11-23T08:20:28.815Z,9.50
2023-11-23T08:22:55.885Z,10.45
2023-11-23T08:25:23.646Z,10.00
2023-11-23T08:27:50.760Z,9.93
2023-11-23T08:30:21.585Z,8.55
2023-11-23T08:32:50.097Z,9.48
2023-11-23T08:35:18.753Z,11.98
2023-11-23T08:37:46.695Z,9.27
2023-11-23T08:40:14.077Z,8.85
2023-11-23T08:42:41.114Z,15.57
2023-11-23T08:45:09.053Z,12.40
2023-11-23T08:47:36.315Z,13.18
2023-11-23T08:50:03.490Z,12.60
2023-11-23T08:52:30.726Z,12.05
2023-11-23T08:54:57.694Z,12.70
2023-11-23T08:57:24.787Z,16.02
2023-11-23T08:59:51.781Z,14.88
2023-11-23T09:02:20.941Z,14.75
2023-11-23T09:04:49.866Z,16.85
2023-11-23T09:07:19.108Z,16.37
2023-11-23T09:09:48.153Z,15.50
2023-11-23T09:12:15.578Z,15.68
2023-11-23T09:14:49.012Z,17.58
2023-11-23T09:17:17.830Z,11.45
2023-11-23T09:19:45.076Z,12.30
2023-11-23T09:22:12.492Z,14.68
2023-11-23T09:24:40.474Z,15.20
2023-11-23T09:27:07.816Z,12.63
2023-11-23T09:29:34.988Z,14.90
2023-11-23T09:32:04.480Z,14.13
2023-11-23T09:34:31.701Z,26.52
2023-11-23T09:36:58.808Z,17.38
2023-11-23T09:39:27.969Z,18.25
2023-11-23T09:41:59.487Z,15.95
2023-11-23T09:44:30.586Z,17.10
2023-11-23T09:46:58.247Z,19.80
2023-11-23T09:49:26.114Z,15.18
2023-11-23T09:51:53.254Z,14.63
2023-11-23T09:54:22.456Z,16.08
2023-11-23T09:56:49.758Z,13.93
2023-11-23T09:59:17.722Z,14.35
2023-11-23T10:01:56.417Z,19.67
2023-11-23T10:04:23.602Z,12.60
2023-11-23T10:06:51.543Z,11.60
2023-11-23T10:09:18.926Z,13.75
2023-11-23T10:11:48.365Z,13.73
2023-11-23T10:14:17.326Z,14.52
2023-11-23T10:16:44.999Z,15.45
2023-11-23T10:19:24.734Z,18.63
2023-11-23T10:21:53.841Z,16.88
2023-11-23T10:24:21.076Z,18.98
2023-11-23T10:26:48.371Z,18.80
2023-11-23T10:29:15.546Z,19.65
2023-11-23T10:31:42.577Z,18.38
2023-11-23T10:34:10.021Z,18.55
2023-11-23T10:36:40.739Z,19.48
2023-11-23T10:39:12.658Z,20.27
2023-11-23T10:41:43.324Z,26.13
2023-11-23T10:44:11.939Z,23.92
2023-11-23T10:46:42.376Z,17.67
2023-11-23T10:49:09.747Z,12.80
2023-11-23T10:51:38.861Z,19.13
2023-11-23T10:54:06.365Z,21.33
2023-11-23T10:56:33.944Z,14.48
2023-11-23T10:59:06.843Z,15.32
2023-11-23T11:01:35.015Z,15.05
2023-11-23T11:04:02.323Z,14.98
2023-11-23T11:06:39.574Z,14.75
2023-11-23T11:09:17.393Z,16.33
2023-11-23T11:11:46.028Z,15.98
2023-11-23T11:14:14.941Z,16.52
2023-11-23T11:16:42.011Z,16.70
2023-11-23T11:19:13.486Z,15.68
2023-11-23T11:21:42.864Z,15.25
2023-11-23T11:24:20.466Z,17.08
2023-11-23T11:26:48.214Z,14.50
2023-11-23T11:29:16.619Z,16.63
2023-11-23T11:31:44.600Z,15.52
2023-11-23T11:34:24.172Z,15.48
2023-11-23T11:37:01.312Z,29.20
2023-11-23T11:39:33.107Z,27.35
2023-11-23T11:42:01.250Z,20.08
2023-11-23T11:44:30.445Z,20.63
2023-11-23T11:46:57.766Z,20.17
2023-11-23T11:49:28.476Z,18.38
2023-11-23T11:51:55.547Z,22.63
2023-11-23T11:54:28.505Z,22.38
2023-11-23T11:56:55.785Z,20.50
2023-11-23T11:59:23.337Z,17.88
2023-11-23T12:01:51.034Z,16.75
2023-11-23T12:04:18.851Z,17.92
2023-11-23T12:06:46.780Z,16.60
2023-11-23T12:09:15.994Z,18.08
2023-11-23T12:11:45.168Z,20.23
2023-11-23T12:14:15.073Z,17.98
2023-11-23T12:16:42.675Z,15.18
2023-11-23T12:19:20.826Z,15.25
2023-11-23T12:21:58.043Z,17.92
2023-11-23T12:24:27.202Z,18.05
2023-11-23T12:26:54.644Z,16.92
2023-11-23T12:29:30.533Z,20.15
2023-11-23T12:32:02.325Z,19.13
2023-11-23T12:34:30.844Z,15.68
2023-11-23T12:37:01.598Z,18.33
2023-11-23T12:39:29.599Z,17.70
2023-11-23T12:41:56.919Z,15.55
2023-11-23T12:44:24.260Z,15.77
2023-11-23T12:46:51.561Z,16.35
2023-11-23T12:49:23.462Z,17.52
2023-11-23T12:51:50.669Z,16.92
2023-11-23T12:54:17.767Z,19.33
2023-11-23T12:56:44.866Z,20.15
2023-11-23T12:59:12.044Z,23.08
2023-11-23T13:01:40.625Z,22.08
2023-11-23T13:04:10.031Z,24.60
2023-11-23T13:06:37.723Z,26.45
2023-11-23T13:09:13.227Z,25.75
2023-11-23T13:11:41.287Z,26.33
2023-11-23T13:14:08.815Z,17.13
2023-11-23T13:16:36.144Z,18.02
2023-11-23T13:19:15.967Z,20.60
2023-11-23T13:21:50.993Z,23.45
2023-11-23T13:24:18.121Z,27.38
2023-11-23T13:26:45.208Z,32.50
2023-11-23T13:29:12.354Z,31.92
2023-11-23T13:31:40.122Z,30.27
2023-11-23T13:34:10.025Z,25.95
2023-11-23T13:36:37.264Z,26.80
2023-11-23T13:39:04.800Z,29.45
2023-11-23T13:41:33.328Z,29.92
2023-11-23T13:44:02.534Z,28.05
2023-11-23T13:46:29.704Z,30.35
2023-11-23T13:48:57.493Z,31.65
2023-11-23T13:51:24.961Z,41.97
2023-11-23T13:53:54.118Z,28.42
2023-11-23T13:56:21.426Z,35.08
2023-11-23T13:58:48.480Z,35.10
2023-11-23T14:01:16.818Z,34.30
2023-11-23T14:03:44.130Z,36.63
2023-11-23T14:06:12.987Z,44.95
2023-11-23T14:08:40.150Z,42.63
2023-11-23T14:11:07.370Z,30.30
2023-11-23T14:13:34.579Z,33.42
2023-11-23T14:16:01.674Z,35.53
2023-11-23T14:18:30.382Z,29.55
2023-11-23T14:20:57.717Z,29.08
2023-11-23T14:23:24.860Z,29.73
2023-11-23T14:25:51.998Z,32.63
2023-11-23T14:28:22.072Z,35.40
2023-11-23T14:30:50.329Z,34.97
2023-11-23T14:33:22.744Z,33.30
2023-11-23T14:35:53.565Z,34.80
2023-11-23T14:38:21.368Z,35.22
2023-11-23T14:40:48.577Z,30.52
2023-11-23T14:43:20.260Z,33.65
2023-11-23T14:45:48.284Z,33.72
2023-11-23T14:48:16.255Z,32.17
2023-11-23T14:50:46.282Z,32.22
2023-11-23T14:53:14.943Z,31.13
2023-11-23T14:55:42.078Z,28.00
2023-11-23T14:58:10.321Z,28.98
2023-11-23T15:00:40.181Z,28.38
2023-11-23T15:03:07.911Z,30.83
2023-11-23T15:05:35.245Z,32.83
2023-11-23T15:08:02.352Z,34.75
2023-11-23T15:10:32.547Z,36.40
2023-11-23T15:13:00.451Z,32.75
2023-11-23T15:15:31.536Z,37.80
2023-11-23T15:18:01.302Z,30.48
2023-11-23T15:20:31.664Z,25.73
2023-11-23T15:23:01.905Z,26.65
2023-11-23T15:25:30.467Z,29.50
2023-11-23T15:27:57.745Z,26.02
2023-11-23T15:30:24.821Z,27.52
2023-11-23T15:32:54.401Z,33.72
2023-11-23T15:35:21.713Z,40.70
2023-11-23T15:37:50.471Z,37.75
2023-11-23T15:40:18.197Z,36.17
2023-11-23T15:42:46.621Z,36.72
2023-11-23T15:45:14.746Z,32.63
2023-11-23T15:47:42.411Z,25.42
2023-11-23T15:50:09.575Z,22.85
2023-11-23T15:52:37.192Z,22.55
2023-11-23T15:55:10.241Z,23.83
2023-11-23T15:57:38.096Z,23.80
2023-11-23T16:00:08.033Z,26.80
2023-11-23T16:02:39.251Z,29.50
2023-11-23T16:05:07.166Z,25.98
2023-11-23T16:07:34.599Z,27.58
2023-11-23T16:10:01.641Z,33.53
2023-11-23T16:12:28.789Z,38.90
2023-11-23T16:14:57.978Z,34.72
2023-11-23T16:17:26.009Z,43.80
2023-11-23T16:19:53.033Z,34.63
2023-11-23T16:22:20.166Z,28.00
2023-11-23T16:24:47.299Z,28.38
2023-11-23T16:27:14.906Z,26.42
2023-11-23T16:29:42.036Z,38.38
2023-11-23T16:32:10.228Z,44.08
2023-11-23T16:34:38.085Z,62.88
2023-11-23T16:37:05.397Z,40.78
2023-11-23T16:39:32.602Z,32.20
2023-11-23T16:41:59.645Z,35.15
2023-11-23T16:44:28.110Z,33.70
2023-11-23T16:46:55.197Z,32.05
2023-11-23T16:49:22.241Z,31.38
2023-11-23T16:51:49.583Z,29.48
2023-11-23T16:54:20.682Z,33.72
2023-11-23T16:59:17.991Z,34.47
2023-11-23T17:01:45.309Z,32.58
2023-11-23T17:04:12.667Z,35.25
2023-11-23T17:06:45.467Z,37.97
2023-11-23T17:09:12.579Z,35.88
2023-11-23T17:11:40.322Z,33.30
2023-11-23T17:14:11.612Z,35.58
2023-11-23T17:16:39.949Z,34.85
2023-11-23T17:19:07.071Z,35.00
2023-11-23T17:21:34.259Z,40.88
2023-11-23T17:24:01.425Z,34.90
2023-11-23T17:26:28.438Z,34.75
2023-11-23T17:28:57.746Z,35.10
2023-11-23T17:31:24.865Z,43.05
2023-11-23T17:33:52.049Z,39.70
2023-11-23T17:36:20.754Z,45.13
2023-11-23T17:38:47.863Z,42.80
2023-11-23T17:41:17.612Z,37.65
2023-11-23T17:43:47.909Z,39.50
2023-11-23T17:46:15.516Z,36.53
2023-11-23T17:48:42.773Z,33.83
2023-11-23T17:51:14.827Z,37.15
2023-11-23T17:53:42.453Z,47.75
2023-11-23T17:56:10.935Z,48.00
2023-11-23T17:58:38.111Z,30.33
2023-11-23T18:01:06.800Z,51.05
2023-11-23T18:03:36.054Z,29.90
2023-11-23T18:06:03.228Z,40.80
2023-11-23T18:08:30.554Z,61.53
2023-11-23T18:11:00.105Z,49.33
2023-11-23T18:13:30.152Z,29.85
2023-11-23T18:15:57.808Z,34.20
2023-11-23T18:18:25.081Z,26.23
2023-11-23T18:20:54.242Z,66.28
2023-11-23T18:23:22.461Z,145.47
2023-11-23T18:25:50.124Z,80.88
2023-11-23T18:28:18.930Z,53.47
2023-11-23T18:30:46.350Z,43.90
2023-11-23T18:33:13.391Z,32.42
2023-11-23T18:35:40.603Z,32.85
2023-11-23T18:38:07.703Z,30.27
2023-11-23T18:40:34.970Z,32.83
2023-11-23T18:43:04.757Z,31.60
2023-11-23T18:45:35.231Z,28.73
2023-11-23T18:48:06.302Z,31.97
2023-11-23T18:50:33.518Z,34.85
2023-11-23T18:53:01.305Z,32.83
2023-11-23T18:55:29.037Z,34.95
2023-11-23T18:57:56.223Z,38.08
2023-11-23T19:00:24.774Z,35.15
2023-11-23T19:02:54.753Z,36.60
2023-11-23T19:05:22.034Z,39.08
2023-11-23T19:07:49.134Z,38.17
2023-11-23T19:10:17.171Z,37.03
2023-11-23T19:12:48.974Z,38.92
2023-11-23T19:15:18.012Z,104.53
2023-11-23T19:17:45.485Z,39.85
2023-11-23T19:20:14.393Z,37.78
2023-11-23T19:22:41.591Z,39.55
2023-11-23T19:25:09.030Z,37.72
2023-11-23T19:27:36.456Z,37.17
2023-11-23T19:30:06.836Z,34.30
2023-11-23T19:32:34.098Z,36.80
2023-11-23T19:35:01.450Z,38.67
2023-11-23T19:37:28.733Z,35.42
2023-11-23T19:39:55.853Z,39.50
2023-11-23T19:42:23.536Z,32.15
2023-11-23T19:44:50.851Z,34.53
2023-11-23T19:47:18.148Z,42.13
2023-11-23T19:49:45.318Z,40.08
2023-11-23T19:52:14.605Z,35.10
2023-11-23T19:54:41.889Z,36.30
2023-11-23T19:57:09.888Z,32.95
2023-11-23T19:59:36.893Z,35.72
2023-11-23T20:02:04.410Z,34.88
2023-11-23T20:04:34.239Z,40.08
2023-11-23T20:07:04.545Z,41.08
2023-11-23T20:09:31.668Z,73.00
2023-11-23T20:11:59.988Z,50.67
2023-11-23T20:14:27.322Z,46.15
2023-11-23T20:16:57.808Z,50.78
2023-11-23T20:19:24.892Z,118.43
2023-11-23T20:21:52.855Z,116.22
2023-11-23T20:24:20.113Z,80.95
2023-11-23T20:26:47.572Z,66.82
2023-11-23T20:29:14.876Z,44.65
2023-11-23T20:31:41.923Z,67.63
2023-11-23T20:34:09.278Z,29.05
2023-11-23T20:36:36.358Z,32.42
2023-11-23T20:39:03.771Z,30.83
2023-11-23T20:41:30.782Z,31.70
2023-11-23T20:43:57.953Z,29.83
2023-11-23T20:46:25.019Z,29.20
2023-11-23T20:48:52.417Z,56.70
2023-11-23T20:51:20.231Z,34.30
2023-11-23T20:53:47.317Z,29.95
2023-11-23T20:56:14.714Z,36.22
2023-11-23T20:58:41.984Z,34.90
2023-11-23T21:01:09.363Z,31.88
2023-11-23T21:03:37.779Z,34.80
2023-11-23T21:06:05.657Z,32.70
2023-11-23T21:08:32.862Z,36.88
2023-11-23T21:10:59.902Z,47.72
2023-11-23T21:13:28.620Z,40.25
2023-11-23T21:15:56.142Z,49.38
2023-11-23T21:18:23.431Z,42.60
2023-11-23T21:20:51.026Z,49.13
2023-11-23T21:23:18.110Z,40.47
2023-11-23T21:25:45.188Z,36.08
2023-11-23T21:28:12.732Z,32.22
2023-11-23T21:30:39.844Z,32.92
2023-11-23T21:33:08.026Z,35.45
2023-11-23T21:35:35.106Z,32.83
2023-11-23T21:38:02.167Z,44.58
2023-11-23T21:40:29.832Z,41.30
2023-11-23T21:42:56.855Z,35.83
2023-11-23T21:45:24.052Z,43.17
2023-11-23T21:47:51.614Z,34.47
2023-11-23T21:50:18.717Z,46.58
2023-11-23T21:52:45.675Z,33.85
2023-11-23T21:55:12.866Z,54.38
2023-11-23T21:57:40.096Z,38.65
2023-11-23T22:00:09.975Z,47.40
2023-11-23T22:02:37.131Z,49.35
2023-11-23T22:05:05.224Z,40.28
2023-11-23T22:07:32.300Z,45.45
2023-11-23T22:09:59.257Z,47.88
2023-11-23T22:12:26.358Z,39.78
2023-11-23T22:14:53.517Z,45.13
2023-11-23T22:17:20.721Z,43.75
2023-11-23T22:19:47.864Z,44.10
2023-11-23T22:22:15.075Z,47.22
2023-11-23T22:24:42.349Z,41.45
2023-11-23T22:27:09.493Z,44.08
2023-11-23T22:29:36.967Z,37.55
2023-11-23T22:32:05.719Z,34.17
2023-11-23T22:34:32.953Z,40.33
2023-11-23T22:37:04.200Z,39.45
2023-11-23T22:39:31.533Z,47.75
2023-11-23T22:41:59.264Z,41.33
2023-11-23T22:44:26.540Z,34.50
2023-11-23T22:46:53.655Z,44.47
2023-11-23T22:49:20.754Z,58.92
2023-11-23T22:51:48.320Z,53.40
2023-11-23T22:54:15.467Z,43.00
2023-11-23T22:56:42.407Z,43.60
2023-11-23T22:59:09.757Z,34.97
2023-11-23T23:01:37.523Z,41.80
2023-11-23T23:04:09.420Z,36.45
2023-11-23T23:06:38.594Z,32.75
2023-11-23T23:09:06.311Z,38.38
2023-11-23T23:11:37.103Z,36.50
2023-11-23T23:14:04.332Z,39.33
2023-11-23T23:16:33.767Z,21.73
2023-11-23T23:19:00.909Z,22.83
2023-11-23T23:21:32.562Z,29.77
2023-11-23T23:24:00.052Z,28.05
2023-11-23T23:26:27.028Z,28.73
2023-11-23T23:28:54.144Z,23.08
2023-11-23T23:31:21.334Z,24.80
2023-11-23T23:33:48.514Z,28.98
2023-11-23T23:36:15.588Z,34.65
2023-11-23T23:38:42.603Z,31.77
2023-11-23T23:41:10.070Z,23.80
2023-11-23T23:43:38.170Z,27.83
2023-11-23T23:46:05.274Z,26.33
2023-11-23T23:48:32.827Z,26.92
2023-11-23T23:50:59.987Z,26.50
2023-11-23T23:53:27.019Z,33.10
2023-11-23T23:55:56.156Z,28.27
2023-11-23T23:58:23.189Z,32.00
